createdAt,value
2022-11-26T00:00:17.225Z,48.13
2022-11-26T00:02:47.526Z,45.70
2022-11-26T00:05:18.503Z,52.55
2022-11-26T00:07:57.582Z,45.80
2022-11-26T00:10:27.879Z,51.58
2022-11-26T00:13:00.161Z,53.22
2022-11-26T00:15:31.937Z,45.53
2022-11-26T00:18:01.433Z,50.65
2022-11-26T00:20:32.426Z,44.85
2022-11-26T00:23:05.481Z,45.92
2022-11-26T00:25:40.729Z,47.78
2022-11-26T00:28:30.520Z,46.03
2022-11-26T00:31:03.861Z,48.35
2022-11-26T00:33:34.112Z,48.63
2022-11-26T00:36:14.917Z,46.88
2022-11-26T00:38:44.805Z,45.92
2022-11-26T00:41:19.285Z,49.05
2022-11-26T00:43:49.522Z,45.25
2022-11-26T00:46:22.877Z,47.60
2022-11-26T00:48:53.180Z,47.03
2022-11-26T00:51:26.432Z,48.65
2022-11-26T00:54:00.135Z,46.67
2022-11-26T00:56:33.801Z,44.47
2022-11-26T00:59:07.669Z,55.35
2022-11-26T01:01:38.630Z,44.27
2022-11-26T01:04:09.697Z,44.67
2022-11-26T01:06:42.829Z,47.42
2022-11-26T01:09:19.237Z,42.70
2022-11-26T01:11:53.842Z,47.53
2022-11-26T01:14:25.076Z,45.45
2022-11-26T01:16:58.234Z,43.55
2022-11-26T01:19:28.996Z,41.80
2022-11-26T01:21:58.493Z,42.30
2022-11-26T01:24:28.327Z,43.47
2022-11-26T01:26:58.231Z,49.03
2022-11-26T01:29:29.000Z,48.25
2022-11-26T01:32:00.081Z,56.55
2022-11-26T01:34:30.825Z,51.13
2022-11-26T01:37:00.312Z,43.20
2022-11-26T01:39:31.308Z,45.53
2022-11-26T01:42:08.308Z,46.90
2022-11-26T01:44:38.434Z,44.22
2022-11-26T01:47:23.323Z,43.85
2022-11-26T01:50:52.439Z,46.83
2022-11-26T01:53:32.890Z,48.53
2022-11-26T01:56:05.616Z,42.85
2022-11-26T01:58:40.342Z,41.35
2022-11-26T02:01:09.259Z,45.03
2022-11-26T02:03:50.831Z,42.80
2022-11-26T02:06:25.974Z,43.38
2022-11-26T02:08:56.789Z,44.83
2022-11-26T02:11:26.713Z,46.90
2022-11-26T02:14:01.162Z,42.05
2022-11-26T02:16:57.851Z,40.95
2022-11-26T02:20:27.439Z,45.05
2022-11-26T02:23:59.752Z,44.97
2022-11-26T02:27:19.533Z,52.63
2022-11-26T02:30:08.731Z,42.28
2022-11-26T02:32:55.821Z,42.80
2022-11-26T02:35:32.283Z,41.05
2022-11-26T02:38:06.257Z,43.72
2022-11-26T02:40:37.022Z,42.30
2022-11-26T02:43:05.568Z,45.65
2022-11-26T02:45:40.835Z,43.95
2022-11-26T02:48:16.953Z,43.35
2022-11-26T02:50:51.596Z,44.22
2022-11-26T02:53:26.979Z,50.85
2022-11-26T02:56:04.407Z,47.08
2022-11-26T02:58:35.190Z,43.00
2022-11-26T03:01:11.916Z,49.63
2022-11-26T03:03:46.927Z,46.88
2022-11-26T03:06:19.625Z,48.58
2022-11-26T03:08:49.960Z,49.90
2022-11-26T03:11:19.435Z,43.97
2022-11-26T03:13:49.912Z,46.03
2022-11-26T03:16:22.118Z,45.58
2022-11-26T03:18:51.815Z,47.17
2022-11-26T03:21:21.272Z,50.72
2022-11-26T03:23:51.234Z,42.60
2022-11-26T03:26:20.816Z,47.10
2022-11-26T03:28:51.319Z,44.63
2022-11-26T03:31:22.649Z,42.78
2022-11-26T03:33:50.922Z,50.38
2022-11-26T03:36:20.441Z,42.30
2022-11-26T03:38:49.996Z,45.10
2022-11-26T03:41:19.573Z,47.67
2022-11-26T03:43:49.171Z,47.58
2022-11-26T03:46:20.458Z,43.78
2022-11-26T03:48:50.007Z,45.28
2022-11-26T03:51:20.709Z,42.47
2022-11-26T03:53:49.100Z,48.10
2022-11-26T03:56:18.663Z,43.13
2022-11-26T03:58:46.981Z,41.45
2022-11-26T04:01:15.710Z,45.55
2022-11-26T04:03:46.755Z,43.67
2022-11-26T04:06:17.694Z,42.33
2022-11-26T04:08:46.028Z,44.63
2022-11-26T04:11:17.614Z,44.95
2022-11-26T04:13:47.131Z,39.25
2022-11-26T04:16:17.881Z,41.97
2022-11-26T04:18:48.819Z,43.38
2022-11-26T04:21:18.690Z,43.75
2022-11-26T04:23:48.514Z,41.60
2022-11-26T04:26:19.288Z,43.78
2022-11-26T04:28:50.593Z,42.80
2022-11-26T04:31:21.587Z,41.53
2022-11-26T04:33:53.088Z,41.15
2022-11-26T04:36:24.127Z,41.67
2022-11-26T04:38:53.583Z,46.35
2022-11-26T04:41:21.868Z,42.38
2022-11-26T04:43:51.670Z,42.58
2022-11-26T04:46:21.235Z,46.40
2022-11-26T04:48:52.123Z,48.75
2022-11-26T04:51:21.632Z,46.78
2022-11-26T04:53:51.414Z,44.83
2022-11-26T04:56:25.888Z,41.55
2022-11-26T04:58:54.134Z,46.35
2022-11-26T05:01:23.746Z,42.13
2022-11-26T05:03:54.594Z,43.80
2022-11-26T05:06:24.173Z,46.53
2022-11-26T05:08:53.653Z,46.65
2022-11-26T05:11:24.428Z,44.60
2022-11-26T05:13:52.717Z,49.75
2022-11-26T05:16:21.119Z,49.03
2022-11-26T05:18:51.008Z,42.63
2022-11-26T05:21:23.083Z,43.67
2022-11-26T05:23:52.713Z,46.95
2022-11-26T05:26:23.780Z,45.25
2022-11-26T05:28:53.331Z,43.50
2022-11-26T05:31:21.783Z,54.90
2022-11-26T05:33:51.369Z,49.47
2022-11-26T05:36:22.254Z,53.05
2022-11-26T05:38:50.556Z,51.97
2022-11-26T05:41:20.112Z,46.40
2022-11-26T05:43:48.628Z,45.95
2022-11-26T05:46:20.262Z,50.00
2022-11-26T05:48:49.961Z,47.50
2022-11-26T05:51:22.493Z,43.50
2022-11-26T05:53:50.773Z,46.35
2022-11-26T05:56:20.324Z,46.83
2022-11-26T05:58:49.800Z,44.85
2022-11-26T06:01:18.400Z,49.95
2022-11-26T06:03:48.072Z,46.45
2022-11-26T06:06:17.955Z,45.85
2022-11-26T06:08:47.579Z,42.13
2022-11-26T06:11:17.355Z,44.20
2022-11-26T06:13:45.683Z,44.60
2022-11-26T06:16:14.481Z,49.22
2022-11-26T06:18:42.861Z,45.25
2022-11-26T06:21:12.601Z,44.28
2022-11-26T06:23:49.661Z,44.08
2022-11-26T06:26:22.727Z,47.05
2022-11-26T06:28:51.073Z,41.05
2022-11-26T06:31:20.619Z,46.22
2022-11-26T06:33:54.549Z,44.05
2022-11-26T06:36:24.487Z,46.45
2022-11-26T06:38:53.097Z,44.63
2022-11-26T06:41:23.123Z,43.88
2022-11-26T06:43:51.450Z,48.40
2022-11-26T06:46:20.205Z,43.97
2022-11-26T06:48:49.738Z,45.20
2022-11-26T06:51:21.687Z,42.05
2022-11-26T06:53:51.138Z,46.13
2022-11-26T06:56:23.520Z,40.83
2022-11-26T06:58:56.090Z,42.05
2022-11-26T07:01:27.159Z,41.47
2022-11-26T07:03:56.836Z,41.78
2022-11-26T07:06:30.340Z,41.65
2022-11-26T07:09:05.350Z,43.47
2022-11-26T07:11:37.234Z,43.33
2022-11-26T07:14:05.605Z,43.10
2022-11-26T07:16:34.136Z,52.10
2022-11-26T07:19:03.853Z,42.70
2022-11-26T07:21:33.683Z,47.15
2022-11-26T07:24:03.214Z,44.25
2022-11-26T07:26:32.856Z,45.58
2022-11-26T07:29:02.568Z,46.83
2022-11-26T07:31:30.942Z,46.75
2022-11-26T07:34:00.562Z,48.58
2022-11-26T07:36:33.042Z,45.75
2022-11-26T07:39:04.398Z,43.40
2022-11-26T07:41:33.994Z,51.78
2022-11-26T07:44:05.296Z,48.53
2022-11-26T07:46:35.206Z,44.80
2022-11-26T07:49:03.650Z,43.05
2022-11-26T07:51:36.752Z,42.97
2022-11-26T07:54:08.950Z,46.92
2022-11-26T07:56:37.503Z,42.92
2022-11-26T07:59:07.582Z,46.20
2022-11-26T08:01:38.825Z,43.58
2022-11-26T08:04:08.408Z,42.08
2022-11-26T08:06:36.865Z,47.58
2022-11-26T08:09:07.691Z,45.25
2022-11-26T08:11:37.211Z,44.50
2022-11-26T08:14:10.394Z,52.85
2022-11-26T08:16:40.360Z,49.00
2022-11-26T08:19:14.411Z,43.75
2022-11-26T08:21:43.975Z,46.20
2022-11-26T08:24:17.338Z,43.95
2022-11-26T08:29:18.116Z,45.30
2022-11-26T08:31:50.201Z,44.05
2022-11-26T08:36:50.906Z,46.20
2022-11-26T08:39:19.857Z,45.15
2022-11-26T08:41:51.915Z,45.03
2022-11-26T08:44:23.707Z,43.83
2022-11-26T08:46:52.340Z,43.13
2022-11-26T08:49:22.370Z,42.88
2022-11-26T08:51:52.281Z,44.33
2022-11-26T08:54:21.002Z,43.47
2022-11-26T08:56:50.535Z,43.47
2022-11-26T08:59:20.654Z,43.38
2022-11-26T09:01:51.235Z,43.22
2022-11-26T09:04:21.126Z,42.63
2022-11-26T09:06:51.882Z,41.92
2022-11-26T09:09:20.483Z,41.45
2022-11-26T09:11:55.105Z,48.53
2022-11-26T09:14:27.126Z,48.03
2022-11-26T09:17:00.006Z,52.40
2022-11-26T09:19:30.109Z,42.72
2022-11-26T09:22:00.470Z,44.88
2022-11-26T09:24:30.056Z,43.70
2022-11-26T09:27:02.814Z,46.13
2022-11-26T09:29:34.304Z,43.83
2022-11-26T09:34:56.066Z,43.67
2022-11-26T09:37:26.265Z,44.83
2022-11-26T09:39:56.127Z,46.33
2022-11-26T09:42:45.523Z,46.85
2022-11-26T09:45:29.808Z,46.47
2022-11-26T09:47:59.872Z,43.95
2022-11-26T09:50:31.686Z,42.85
2022-11-26T09:53:04.347Z,42.47
2022-11-26T09:55:35.343Z,45.97
2022-11-26T09:58:13.297Z,45.85
2022-11-26T10:00:47.043Z,53.53
2022-11-26T10:03:19.849Z,44.33
2022-11-26T10:05:58.175Z,45.97
2022-11-26T10:09:03.750Z,45.20
2022-11-26T10:11:42.402Z,51.17
2022-11-26T10:14:31.074Z,46.92
2022-11-26T10:17:21.998Z,52.70
2022-11-26T10:20:09.113Z,47.65
2022-11-26T10:22:46.296Z,57.92
2022-11-26T10:25:19.853Z,45.58
2022-11-26T10:27:51.961Z,48.03
2022-11-26T10:32:52.921Z,46.20
2022-11-26T10:35:27.367Z,45.55
2022-11-26T10:37:59.380Z,45.88
2022-11-26T10:40:30.445Z,45.13
2022-11-26T10:43:13.902Z,45.45
2022-11-26T10:48:22.388Z,46.78
2022-11-26T10:51:07.436Z,49.10
2022-11-26T10:53:56.000Z,44.67
2022-11-26T10:56:34.627Z,45.53
2022-11-26T10:59:05.895Z,45.28
2022-11-26T11:01:39.235Z,45.97
2022-11-26T11:04:28.674Z,46.72
2022-11-26T11:07:00.544Z,48.22
2022-11-26T11:09:34.183Z,44.75
2022-11-26T11:12:24.669Z,48.38
2022-11-26T11:14:54.230Z,46.63
2022-11-26T11:17:35.714Z,52.60
2022-11-26T11:20:24.258Z,45.60
2022-11-26T11:23:06.841Z,49.17
2022-11-26T11:25:39.205Z,43.83
2022-11-26T11:28:17.941Z,49.85
2022-11-26T11:30:58.650Z,46.10
2022-11-26T11:33:31.840Z,45.35
2022-11-26T11:36:26.141Z,61.08
2022-11-26T11:38:58.818Z,94.28
2022-11-26T11:41:34.517Z,45.85
2022-11-26T11:44:08.502Z,150.15
2022-11-26T11:47:11.269Z,59.70
2022-11-26T11:49:56.821Z,50.35
2022-11-26T11:52:39.760Z,49.45
2022-11-26T11:55:23.307Z,125.75
2022-11-26T11:58:22.980Z,114.38
2022-11-26T12:00:57.673Z,124.75
2022-11-26T12:04:02.543Z,126.03
2022-11-26T12:06:41.408Z,128.75
2022-11-26T12:09:25.261Z,117.30
2022-11-26T12:12:00.191Z,122.93
2022-11-26T12:14:37.193Z,56.45
2022-11-26T12:17:09.427Z,52.67
2022-11-26T12:19:42.331Z,46.45
2022-11-26T12:22:19.988Z,58.08
2022-11-26T12:24:53.919Z,55.75
2022-11-26T12:27:34.954Z,76.97
2022-11-26T12:30:08.694Z,90.47
2022-11-26T12:32:47.236Z,45.22
2022-11-26T12:35:27.688Z,47.67
2022-11-26T12:38:04.532Z,53.35
2022-11-26T12:40:38.752Z,48.78
2022-11-26T12:43:18.524Z,48.70
2022-11-26T12:45:53.720Z,49.63
2022-11-26T12:48:40.113Z,51.25
2022-11-26T12:51:22.206Z,47.97
2022-11-26T12:53:59.315Z,49.72
2022-11-26T12:56:34.806Z,49.80
2022-11-26T12:59:14.716Z,46.75
2022-11-26T13:01:44.313Z,71.38
2022-11-26T13:04:36.809Z,50.15
2022-11-26T13:07:16.637Z,50.80
2022-11-26T13:10:06.723Z,49.45
2022-11-26T13:12:49.372Z,46.67
2022-11-26T13:15:26.709Z,50.35
2022-11-26T13:18:00.620Z,48.78
2022-11-26T13:20:48.252Z,47.25
2022-11-26T13:23:37.495Z,48.83
2022-11-26T13:26:23.230Z,46.80
2022-11-26T13:29:07.582Z,47.95
2022-11-26T13:31:56.248Z,44.35
2022-11-26T13:34:44.356Z,49.17
2022-11-26T13:37:43.126Z,48.28
2022-11-26T13:40:58.427Z,48.33
2022-11-26T13:44:11.441Z,45.67
2022-11-26T13:46:47.712Z,45.08
2022-11-26T13:49:23.576Z,49.30
2022-11-26T13:51:57.901Z,44.30
2022-11-26T13:54:31.521Z,44.17
2022-11-26T13:57:05.598Z,45.28
2022-11-26T13:59:36.791Z,44.00
2022-11-26T14:02:43.427Z,46.83
2022-11-26T14:05:15.558Z,47.97
2022-11-26T14:10:43.389Z,45.75
2022-11-26T14:13:17.275Z,43.30
2022-11-26T14:15:57.742Z,43.17
2022-11-26T14:19:01.719Z,44.83
2022-11-26T14:21:31.690Z,45.33
2022-11-26T14:24:04.410Z,43.67
2022-11-26T14:26:37.608Z,44.30
2022-11-26T14:29:18.700Z,44.08
2022-11-26T14:31:52.804Z,45.33
2022-11-26T14:34:30.603Z,49.13
2022-11-26T14:37:01.901Z,45.33
2022-11-26T14:39:32.721Z,47.47
2022-11-26T14:42:06.351Z,43.78
2022-11-26T14:44:36.663Z,43.95
2022-11-26T14:47:17.352Z,45.17
2022-11-26T14:49:54.187Z,42.20
2022-11-26T14:52:29.221Z,42.75
2022-11-26T14:55:01.598Z,43.58
2022-11-26T14:57:42.898Z,42.73
2022-11-26T15:00:24.665Z,43.60
2022-11-26T15:02:54.389Z,45.97
2022-11-26T15:05:27.531Z,47.38
2022-11-26T15:08:02.118Z,43.45
2022-11-26T15:10:35.687Z,43.78
2022-11-26T15:13:19.701Z,44.00
2022-11-26T15:15:53.563Z,44.00
2022-11-26T15:18:30.024Z,44.10
2022-11-26T15:21:03.255Z,43.17
2022-11-26T15:23:37.687Z,51.33
2022-11-26T15:26:08.250Z,44.10
2022-11-26T15:28:41.006Z,44.38
2022-11-26T15:31:10.154Z,43.47
2022-11-26T15:33:41.815Z,43.42
2022-11-26T15:36:17.357Z,44.85
2022-11-26T15:39:03.030Z,43.20
2022-11-26T15:41:32.050Z,44.33
2022-11-26T15:44:02.005Z,44.40
2022-11-26T15:46:35.058Z,44.13
2022-11-26T15:49:08.137Z,45.20
2022-11-26T15:51:43.239Z,44.10
2022-11-26T15:54:30.865Z,45.30
2022-11-26T15:57:24.823Z,43.45
2022-11-26T16:00:01.125Z,43.33
2022-11-26T16:02:33.218Z,42.53
2022-11-26T16:05:03.230Z,44.42
2022-11-26T16:07:34.955Z,45.37
2022-11-26T16:10:25.866Z,43.55
2022-11-26T16:13:22.939Z,44.67
2022-11-26T16:15:57.847Z,43.42
2022-11-26T16:18:37.910Z,43.50
2022-11-26T16:21:09.542Z,43.58
2022-11-26T16:23:42.750Z,54.30
2022-11-26T16:26:19.448Z,45.85
2022-11-26T16:28:49.969Z,43.25
2022-11-26T16:31:20.172Z,42.15
2022-11-26T16:33:51.219Z,42.17
2022-11-26T16:36:24.629Z,43.97
2022-11-26T16:38:56.258Z,45.15
2022-11-26T16:41:25.166Z,73.88
2022-11-26T16:43:53.509Z,53.63
2022-11-26T16:46:24.861Z,54.78
2022-11-26T16:48:53.493Z,50.83
2022-11-26T16:51:23.700Z,53.25
2022-11-26T16:53:55.732Z,107.07
2022-11-26T16:56:26.661Z,116.82
2022-11-26T17:01:28.517Z,113.65
2022-11-26T17:03:58.092Z,98.63
2022-11-26T17:06:30.208Z,59.75
2022-11-26T17:09:01.640Z,59.95
2022-11-26T17:11:31.469Z,52.55
2022-11-26T17:14:00.035Z,49.22
2022-11-26T17:16:29.164Z,49.50
2022-11-26T17:18:58.656Z,64.57
2022-11-26T17:21:28.445Z,59.45
2022-11-26T17:23:57.930Z,69.00
2022-11-26T17:26:27.603Z,58.53
2022-11-26T17:28:57.062Z,58.78
2022-11-26T17:31:26.926Z,60.58
2022-11-26T17:33:56.474Z,58.78
2022-11-26T17:36:25.570Z,60.25
2022-11-26T17:38:55.146Z,57.25
2022-11-26T17:41:24.604Z,66.32
2022-11-26T17:43:55.402Z,54.60
2022-11-26T17:46:23.904Z,49.03
2022-11-26T17:48:59.393Z,43.83
2022-11-26T17:51:29.379Z,45.55
2022-11-26T17:53:58.072Z,48.65
2022-11-26T17:56:28.046Z,51.38
2022-11-26T17:59:03.844Z,55.23
2022-11-26T18:01:33.640Z,53.55
2022-11-26T18:04:04.755Z,47.10
2022-11-26T18:06:46.062Z,43.40
2022-11-26T18:09:16.752Z,42.03
2022-11-26T18:11:50.332Z,42.45
2022-11-26T18:14:20.330Z,43.03
2022-11-26T18:16:50.439Z,47.30
2022-11-26T18:19:22.844Z,45.65
2022-11-26T18:21:52.578Z,44.50
2022-11-26T18:24:23.395Z,45.28
2022-11-26T18:26:56.242Z,44.85
2022-11-26T18:29:31.407Z,58.10
2022-11-26T18:32:00.822Z,47.97
2022-11-26T18:34:30.264Z,43.45
2022-11-26T18:37:00.054Z,42.08
2022-11-26T18:39:29.568Z,40.63
2022-11-26T18:42:29.571Z,44.20
2022-11-26T18:44:49.855Z,43.25
2022-11-26T18:47:19.262Z,42.20
2022-11-26T18:49:49.405Z,43.22
2022-11-26T18:52:19.182Z,40.85
2022-11-26T18:54:50.139Z,43.60
2022-11-26T18:57:19.512Z,43.03
2022-11-26T18:59:50.602Z,42.40
2022-11-26T19:02:20.536Z,51.33
2022-11-26T19:04:49.158Z,43.35
2022-11-26T19:07:18.662Z,42.28
2022-11-26T19:09:49.654Z,43.20
2022-11-26T19:12:17.915Z,42.50
2022-11-26T19:14:48.484Z,42.60
2022-11-26T19:17:19.366Z,44.00
2022-11-26T19:19:49.231Z,52.88
2022-11-26T19:22:17.488Z,43.55
2022-11-26T19:24:47.096Z,42.10
2022-11-26T19:27:15.320Z,41.40
2022-11-26T19:29:44.837Z,52.08
2022-11-26T19:32:14.277Z,41.13
2022-11-26T19:34:45.145Z,42.00
2022-11-26T19:37:13.428Z,43.33
2022-11-26T19:39:44.078Z,39.83
2022-11-26T19:42:13.513Z,43.85
2022-11-26T19:44:43.335Z,42.95
2022-11-26T19:47:12.815Z,40.80
2022-11-26T19:49:44.832Z,40.80
2022-11-26T19:52:14.272Z,40.33
2022-11-26T19:54:43.692Z,40.47
2022-11-26T19:57:13.527Z,44.47
2022-11-26T19:59:43.036Z,39.97
2022-11-26T20:02:12.929Z,42.38
2022-11-26T20:04:45.245Z,41.65
2022-11-26T20:09:44.225Z,42.55
2022-11-26T20:12:13.674Z,43.30
2022-11-26T20:14:43.225Z,40.08
2022-11-26T20:17:12.702Z,45.03
2022-11-26T20:19:42.413Z,42.08
2022-11-26T20:22:12.543Z,42.10
2022-11-26T20:24:42.974Z,42.00
2022-11-26T20:27:11.306Z,39.33
2022-11-26T20:29:41.979Z,40.30
2022-11-26T20:32:11.518Z,43.22
2022-11-26T20:34:40.123Z,42.70
2022-11-26T20:37:08.339Z,42.65
2022-11-26T20:39:38.210Z,40.83
2022-11-26T20:42:08.036Z,42.55
2022-11-26T20:44:37.560Z,40.50
2022-11-26T20:47:07.012Z,40.70
2022-11-26T20:49:42.985Z,41.22
2022-11-26T20:52:11.723Z,41.75
2022-11-26T20:54:42.588Z,49.50
2022-11-26T20:57:12.012Z,49.17
2022-11-26T20:59:41.824Z,43.72
2022-11-26T21:02:12.145Z,42.22
2022-11-26T21:04:40.459Z,40.75
2022-11-26T21:07:08.707Z,42.95
2022-11-26T21:09:38.389Z,41.13
2022-11-26T21:12:09.502Z,42.72
2022-11-26T21:14:40.162Z,41.78
2022-11-26T21:17:08.615Z,40.78
2022-11-26T21:19:38.658Z,39.92
2022-11-26T21:22:08.217Z,40.50
2022-11-26T21:24:38.453Z,47.60
2022-11-26T21:27:06.696Z,40.90
2022-11-26T21:29:38.851Z,40.33
2022-11-26T21:32:07.562Z,40.63
2022-11-26T21:34:35.816Z,40.58
2022-11-26T21:37:04.015Z,41.35
2022-11-26T21:39:33.780Z,40.90
2022-11-26T21:42:03.228Z,42.50
2022-11-26T21:44:32.747Z,47.22
2022-11-26T21:47:03.815Z,43.45
2022-11-26T21:49:33.470Z,41.15
2022-11-26T21:52:03.199Z,49.85
2022-11-26T21:54:34.039Z,42.75
2022-11-26T21:57:02.261Z,41.20
2022-11-26T21:59:30.979Z,39.28
2022-11-26T22:01:59.256Z,39.42
2022-11-26T22:04:28.966Z,38.88
2022-11-26T22:06:58.599Z,40.40
2022-11-26T22:09:28.145Z,39.75
2022-11-26T22:11:57.642Z,39.40
2022-11-26T22:14:26.105Z,47.30
2022-11-26T22:16:55.142Z,43.22
2022-11-26T22:19:25.975Z,51.00
2022-11-26T22:21:56.791Z,39.85
2022-11-26T22:24:25.208Z,41.80
2022-11-26T22:26:55.062Z,41.33
2022-11-26T22:29:25.147Z,40.60
2022-11-26T22:31:54.613Z,39.90
2022-11-26T22:34:26.139Z,41.45
2022-11-26T22:36:57.286Z,43.40
2022-11-26T22:39:27.876Z,43.40
2022-11-26T22:41:56.132Z,39.88
2022-11-26T22:44:25.862Z,41.70
2022-11-26T22:46:55.349Z,40.88
2022-11-26T22:49:25.608Z,41.53
2022-11-26T22:51:53.827Z,41.33
2022-11-26T22:54:24.867Z,42.88
2022-11-26T22:56:54.411Z,42.03
2022-11-26T22:59:22.725Z,42.17
2022-11-26T23:01:56.878Z,42.17
2022-11-26T23:04:27.428Z,42.67
2022-11-26T23:06:58.074Z,41.33
2022-11-26T23:09:27.663Z,41.88
2022-11-26T23:11:57.135Z,40.85
2022-11-26T23:14:26.569Z,41.65
2022-11-26T23:16:55.994Z,40.60
2022-11-26T23:19:24.205Z,45.45
2022-11-26T23:21:54.805Z,42.33
2022-11-26T23:24:24.248Z,43.92
2022-11-26T23:26:55.161Z,40.55
2022-11-26T23:29:24.617Z,40.78
2022-11-26T23:31:54.146Z,40.63
2022-11-26T23:34:23.646Z,41.70
2022-11-26T23:36:53.062Z,41.55
2022-11-26T23:39:22.533Z,43.78
2022-11-26T23:41:52.024Z,41.05
2022-11-26T23:44:23.085Z,41.67
2022-11-26T23:46:51.411Z,46.47
2022-11-26T23:49:22.821Z,40.22
2022-11-26T23:51:52.383Z,42.03
2022-11-26T23:54:22.138Z,77.28
2022-11-26T23:56:51.635Z,92.68
2022-11-26T23:59:22.773Z,95.70
